createdAt,value
2022-11-28T00:00:12.185Z,22.06
2022-11-28T00:05:08.371Z,23.51
2022-11-28T00:10:07.595Z,23.50
2022-11-28T00:15:06.778Z,23.10
2022-11-28T00:20:05.962Z,23.19
2022-11-28T00:25:08.235Z,23.40
2022-11-28T00:30:05.387Z,23.50
2022-11-28T00:35:03.565Z,24.58
2022-11-28T00:40:02.749Z,21.30
2022-11-28T00:45:01.938Z,21.52
2022-11-28T00:50:01.111Z,22.03
2022-11-28T00:55:00.315Z,22.55
2022-11-28T01:00:00.495Z,23.07
2022-11-28T01:04:58.675Z,23.59
2022-11-28T01:09:58.970Z,24.10
2022-11-28T01:14:57.289Z,24.72
2022-11-28T01:19:58.627Z,25.45
2022-11-28T01:24:55.937Z,25.76
2022-11-28T01:29:55.259Z,26.07
2022-11-28T01:34:54.537Z,26.59
2022-11-28T01:39:52.821Z,26.80
2022-11-28T01:44:53.099Z,27.11
2022-11-28T01:49:53.382Z,27.44
2022-11-28T01:54:52.664Z,27.85
2022-11-28T01:59:52.950Z,28.16
2022-11-28T02:04:50.254Z,28.47
2022-11-28T02:09:49.564Z,28.78
2022-11-28T02:14:49.878Z,29.10
2022-11-28T02:19:48.186Z,29.41
2022-11-28T02:24:48.514Z,29.63
2022-11-28T02:29:46.821Z,29.94
2022-11-28T02:34:47.439Z,30.15
2022-11-28T02:39:46.378Z,30.35
2022-11-28T02:44:45.068Z,30.57
2022-11-28T02:49:46.983Z,30.68
2022-11-28T02:54:43.300Z,30.98
2022-11-28T02:59:42.376Z,31.10
2022-11-28T03:04:42.868Z,31.20
2022-11-28T03:09:43.007Z,31.41
2022-11-28T03:14:40.554Z,31.51
2022-11-28T03:19:42.497Z,31.62
2022-11-28T03:24:39.911Z,31.62
2022-11-28T03:29:37.899Z,31.82
2022-11-28T03:34:37.217Z,31.94
2022-11-28T03:39:36.502Z,32.14
2022-11-28T03:44:36.807Z,32.26
2022-11-28T03:49:36.078Z,32.35
2022-11-28T03:54:35.385Z,32.47
2022-11-28T03:59:34.702Z,32.67
2022-11-28T04:04:33.007Z,32.67
2022-11-28T04:09:34.327Z,32.79
2022-11-28T04:14:33.630Z,32.89
2022-11-28T04:19:32.924Z,32.99
2022-11-28T04:24:30.206Z,33.00
2022-11-28T04:29:29.517Z,33.11
2022-11-28T04:34:28.816Z,33.20
2022-11-28T04:39:29.111Z,33.31
2022-11-28T04:44:28.379Z,33.32
2022-11-28T04:49:26.668Z,33.42
2022-11-28T04:54:26.993Z,33.42
2022-11-28T04:59:27.291Z,33.52
2022-11-28T05:04:26.589Z,33.54
2022-11-28T05:09:24.877Z,33.64
2022-11-28T05:14:23.221Z,33.64
2022-11-28T05:19:22.489Z,33.64
2022-11-28T05:24:22.547Z,33.74
2022-11-28T05:29:20.933Z,33.74
2022-11-28T05:34:20.222Z,33.86
2022-11-28T05:39:21.533Z,33.86
2022-11-28T05:44:22.828Z,33.86
2022-11-28T05:49:18.933Z,33.86
2022-11-28T05:54:19.250Z,33.95
2022-11-28T05:59:16.526Z,33.95
2022-11-28T06:04:17.854Z,34.07
2022-11-28T06:09:14.977Z,34.07
2022-11-28T06:14:15.332Z,34.07
2022-11-28T06:19:13.538Z,34.07
2022-11-28T06:24:12.627Z,34.17
2022-11-28T06:29:11.912Z,34.17
2022-11-28T06:34:13.247Z,34.17
2022-11-28T06:39:10.531Z,34.19
2022-11-28T06:44:09.842Z,34.09
2022-11-28T06:49:09.109Z,33.99
2022-11-28T06:54:08.432Z,33.89
2022-11-28T06:59:07.725Z,33.89
2022-11-28T07:04:08.057Z,33.89
2022-11-28T07:09:07.327Z,33.79
2022-11-28T07:14:05.631Z,33.79
2022-11-28T07:19:04.930Z,33.80
2022-11-28T07:24:04.260Z,33.70
2022-11-28T07:29:02.581Z,33.70
2022-11-28T07:34:02.886Z,33.70
2022-11-28T07:39:02.226Z,33.70
2022-11-28T07:44:01.547Z,33.70
2022-11-28T07:49:00.812Z,33.70
2022-11-28T07:54:00.121Z,33.70
2022-11-28T07:59:03.164Z,33.72
2022-11-28T08:03:58.740Z,33.62
2022-11-28T08:08:57.902Z,33.72
2022-11-28T08:13:58.214Z,33.62
2022-11-28T08:18:56.364Z,33.62
2022-11-28T08:23:55.665Z,33.51
2022-11-28T08:28:54.966Z,33.51
2022-11-28T08:33:55.271Z,33.42
2022-11-28T08:39:03.908Z,33.22
2022-11-28T08:43:53.715Z,33.22
2022-11-28T08:48:52.013Z,33.11
2022-11-28T08:53:54.949Z,33.11
2022-11-28T08:58:50.534Z,33.11
2022-11-28T09:03:50.929Z,33.01
2022-11-28T09:08:50.047Z,33.01
2022-11-28T09:13:48.381Z,33.11
2022-11-28T09:18:47.697Z,33.22
2022-11-28T09:23:47.866Z,33.22
2022-11-28T09:28:46.020Z,33.11
2022-11-28T09:33:45.158Z,33.11
2022-11-28T09:38:46.483Z,34.32
2022-11-28T09:43:44.800Z,33.72
2022-11-28T09:48:44.111Z,33.62
2022-11-28T09:53:42.424Z,33.51
2022-11-28T09:58:41.740Z,33.51
2022-11-28T10:03:40.907Z,33.51
2022-11-28T10:08:41.052Z,33.53
2022-11-28T10:14:06.087Z,33.00
2022-11-28T10:18:39.518Z,32.48
2022-11-28T10:23:37.805Z,31.96
2022-11-28T10:28:41.097Z,31.54
2022-11-28T10:33:36.396Z,31.34
2022-11-28T10:38:34.891Z,31.03
2022-11-28T10:43:35.034Z,31.03
2022-11-28T10:48:41.540Z,30.93
2022-11-28T10:53:33.342Z,30.93
2022-11-28T10:58:32.483Z,30.93
2022-11-28T11:03:31.871Z,31.03
2022-11-28T11:08:32.149Z,31.14
2022-11-28T11:13:30.293Z,31.14
2022-11-28T11:18:30.477Z,31.24
2022-11-28T11:23:29.460Z,31.36
2022-11-28T11:28:28.778Z,31.46
2022-11-28T11:33:27.624Z,31.56
2022-11-28T11:38:27.348Z,31.76
2022-11-28T11:43:25.749Z,31.88
2022-11-28T11:48:24.901Z,31.98
2022-11-28T11:53:24.387Z,31.98
2022-11-28T11:58:23.535Z,32.08
2022-11-28T12:03:23.039Z,32.20
2022-11-28T12:08:23.057Z,32.18
2022-11-28T12:13:23.381Z,31.98
2022-11-28T12:18:22.691Z,31.77
2022-11-28T12:23:20.010Z,31.56
2022-11-28T12:28:20.092Z,31.46
2022-11-28T12:33:19.390Z,31.34
2022-11-28T12:38:17.715Z,31.24
2022-11-28T12:43:16.876Z,31.24
2022-11-28T12:48:15.973Z,31.24
2022-11-28T12:53:16.358Z,31.26
2022-11-28T12:58:15.642Z,31.36
2022-11-28T13:03:14.023Z,31.46
2022-11-28T13:08:13.142Z,31.46
2022-11-28T13:13:13.490Z,31.56
2022-11-28T13:18:11.591Z,31.68
2022-11-28T13:23:10.940Z,31.77
2022-11-28T13:28:10.331Z,31.88
2022-11-28T13:33:09.460Z,31.88
2022-11-28T13:43:08.757Z,32.09
2022-11-28T13:48:07.156Z,32.20
2022-11-28T13:53:06.474Z,32.20
2022-11-28T13:58:05.829Z,32.09
2022-11-28T14:03:05.118Z,31.88
2022-11-28T14:08:04.544Z,31.68
2022-11-28T14:13:04.752Z,31.26
2022-11-28T14:18:03.048Z,30.94
2022-11-28T14:23:02.361Z,30.63
2022-11-28T14:28:02.699Z,30.41
2022-11-28T14:33:02.012Z,30.31
2022-11-28T14:38:00.336Z,30.31
2022-11-28T14:43:00.761Z,30.31
2022-11-28T14:47:58.642Z,30.41
2022-11-28T14:52:58.785Z,30.52
2022-11-28T14:57:57.935Z,30.63
2022-11-28T15:02:57.185Z,30.84
2022-11-28T15:07:56.407Z,30.94
2022-11-28T15:12:54.494Z,31.14
2022-11-28T15:17:54.787Z,31.26
2022-11-28T15:22:53.131Z,31.36
2022-11-28T15:27:51.250Z,31.57
2022-11-28T15:32:55.686Z,31.68
2022-11-28T15:37:50.807Z,31.77
2022-11-28T15:42:50.137Z,31.99
2022-11-28T15:47:49.451Z,32.09
2022-11-28T15:52:48.746Z,32.20
2022-11-28T15:57:49.048Z,32.20
2022-11-28T16:02:47.368Z,31.88
2022-11-28T16:07:48.732Z,30.94
2022-11-28T16:12:46.873Z,30.28
2022-11-28T16:17:45.240Z,31.97
2022-11-28T16:22:44.404Z,32.46
2022-11-28T16:27:44.545Z,31.85
2022-11-28T16:32:43.868Z,31.56
2022-11-28T16:37:44.460Z,31.27
2022-11-28T16:42:42.766Z,31.17
2022-11-28T16:47:41.935Z,31.29
2022-11-28T16:52:42.298Z,31.38
2022-11-28T16:57:39.233Z,31.50
2022-11-28T17:02:38.584Z,31.60
2022-11-28T17:07:38.762Z,31.82
2022-11-28T17:12:37.077Z,31.93
2022-11-28T17:17:36.378Z,32.03
2022-11-28T17:22:40.525Z,32.24
2022-11-28T17:27:34.936Z,32.55
2022-11-28T17:32:34.055Z,32.56
2022-11-28T17:37:35.548Z,32.67
2022-11-28T17:42:33.057Z,32.78
2022-11-28T17:47:43.057Z,32.98
2022-11-28T17:52:32.243Z,33.10
2022-11-28T17:57:31.654Z,33.20
2022-11-28T18:02:31.027Z,33.20
2022-11-28T18:07:29.852Z,33.20
2022-11-28T18:12:28.312Z,33.10
2022-11-28T18:17:28.538Z,33.00
2022-11-28T18:22:26.508Z,32.78
2022-11-28T18:27:25.949Z,32.48
2022-11-28T18:32:26.469Z,32.06
2022-11-28T18:37:25.684Z,31.85
2022-11-28T18:42:24.902Z,31.54
2022-11-28T18:47:24.058Z,31.43
2022-11-28T18:52:20.821Z,31.43
2022-11-28T18:57:22.456Z,31.45
2022-11-28T19:02:21.831Z,31.54
2022-11-28T19:07:19.681Z,31.65
2022-11-28T19:12:19.174Z,35.06
2022-11-28T19:17:17.964Z,33.06
2022-11-28T19:22:19.695Z,33.44
2022-11-28T19:27:16.841Z,32.46
2022-11-28T19:32:17.650Z,29.78
2022-11-28T19:37:14.874Z,26.46
2022-11-28T19:42:17.026Z,24.41
2022-11-28T19:47:15.501Z,23.39
2022-11-28T19:52:12.813Z,23.08
2022-11-28T19:57:12.666Z,22.67
2022-11-28T20:02:13.426Z,22.26
2022-11-28T20:07:11.579Z,22.15
2022-11-28T20:12:09.521Z,22.78
2022-11-28T20:17:10.224Z,22.36
2022-11-28T20:22:08.364Z,21.75
2022-11-28T20:27:08.527Z,21.65
2022-11-28T20:32:06.671Z,22.15
2022-11-28T20:37:05.890Z,22.15
2022-11-28T20:42:04.731Z,21.84
2022-11-28T20:47:05.933Z,21.84
2022-11-28T20:52:03.539Z,21.43
2022-11-28T20:57:20.881Z,21.64
2022-11-28T21:02:07.382Z,22.05
2022-11-28T21:07:01.143Z,21.84
2022-11-28T21:12:00.224Z,21.84
2022-11-28T21:16:58.688Z,21.73
2022-11-28T21:21:58.759Z,21.73
2022-11-28T21:26:57.720Z,21.63
2022-11-28T21:31:57.373Z,21.62
2022-11-28T21:36:56.333Z,21.41
2022-11-28T21:41:56.661Z,21.11
2022-11-28T21:46:55.939Z,21.00
2022-11-28T21:51:55.220Z,21.51
2022-11-28T21:56:53.488Z,21.72
2022-11-28T22:01:53.828Z,21.51
2022-11-28T22:06:51.918Z,21.30
2022-11-28T22:11:52.207Z,21.91
2022-11-28T22:16:50.520Z,22.01
2022-11-28T22:21:51.784Z,21.80
2022-11-28T22:26:49.073Z,21.70
2022-11-28T22:31:48.413Z,21.29
2022-11-28T22:36:47.551Z,21.19
2022-11-28T22:41:46.873Z,21.09
2022-11-28T22:46:47.191Z,21.29
2022-11-28T22:51:45.507Z,21.28
2022-11-28T22:56:44.631Z,21.59
2022-11-28T23:01:44.024Z,21.49
2022-11-28T23:06:44.222Z,21.28
2022-11-28T23:11:42.563Z,21.17
2022-11-28T23:16:41.717Z,21.08
2022-11-28T23:21:41.828Z,20.98
2022-11-28T23:26:40.982Z,20.87
2022-11-28T23:31:39.209Z,20.87
2022-11-28T23:36:42.642Z,21.69
2022-11-28T23:41:38.592Z,21.88
2022-11-28T23:46:37.782Z,21.69
2022-11-28T23:51:35.957Z,21.27
2022-11-28T23:56:37.137Z,21.48
